Quick Links (Output Below):   Max & Min Temps   /   Climate Reports   /   Zone Forecasts
River Forecasts   /   Forestry Forecasts   /   Aviation Forecasts   /   Radars   /   Features

Terminal Aerodrome Forecast (Fort Smith)

Pick a Site:
Arkadelphia | El Dorado | Fayetteville | Fort Smith | Harrison | Highfill | Hot Springs | Jonesboro
Little Rock | Monticello | Mountain Home | Pine Bluff | Texarkana
 Forecast 

KFSM 242320Z 2500/2524 VRB03KT P6SM SKC
     FM251600 25005KT P6SM SKC=


 Latest METARs (Observations) 
How to Decode METARs
04Z KFSM 250353Z AUTO 00000KT 10SM CLR 17/15 A3008 RMK AO2 SLP184
         T01720150
         
03Z KFSM 250253Z 00000KT 10SM CLR 18/16 A3009 RMK AO2 SLP186 T01780156
         53009
         
02Z KFSM 250153Z 00000KT 10SM CLR 19/16 A3007 RMK AO2 SLP180
         T01890161
         
01Z KFSM 250053Z 00000KT 10SM CLR 19/17 A3007 RMK AO2 SLP182
         T01940167
         
00Z KFSM 242353Z AUTO 08004KT 10SM CLR 22/17 A3006 RMK AO2 SLP177
         T02170167 10256 20217 55004 TSNO
         
***** Today's Observations (Above) *****


23Z KFSM 242253Z AUTO 00000KT 10SM CLR 24/16 A3005 RMK AO2 SLP173
         T02390156 TSNO
         
22Z KFSM 242153Z AUTO 22006KT 10SM CLR 24/15 A3006 RMK AO2 SLP176
         T02440150 TSNO
         
21Z KFSM 242053Z AUTO 18003KT 10SM CLR 24/14 A3007 RMK AO2 SLP180
         T02440144 56020 TSNO
         
20Z KFSM 241953Z AUTO 22004KT 10SM CLR 25/14 A3008 RMK AO2 SLP182
         T02500139 TSNO
         
19Z KFSM 241853Z 20005KT 10SM CLR 24/13 A3009 RMK AO2 SLP188
         T02390133
         
***** Yesterday's Observations (Above) *****


Back to Main Page
http://www.srh.noaa.gov/lzk/qfcst.php

USA.gov is the U.S. government's official web portal to all federal, state and local government web resources and services.